Wetterdaten: Woche 26.07.10 - 01.08.10 (KW30)
Datum Zeit Temperatur Luftfeuchte Luftdruck Niederschlag Wind Richtung Sonnenschein Solar Taupunkt Windchill Windben
26.07.2010 00:00 16.1 C 80 % 1014.9 hPa 0.0 l/m 2.4 km/h (1 Bft) O-SO 0.00 h 0 W/m 12.7 C 16.1 C 4.2 km/h (1 Bft)
26.07.2010 01:00 15.7 C 84 % 1015.0 hPa 0.0 l/m 1.8 km/h (1 Bft) O-SO 0.00 h 0 W/m 13.0 C 15.7 C 3.3 km/h (1 Bft)
26.07.2010 02:00 15.5 C 85 % 1014.8 hPa 0.2 l/m 0.8 km/h (0 Bft) O-SO 0.00 h 0 W/m 12.9 C 15.5 C 1.6 km/h (1 Bft)
26.07.2010 03:00 14.8 C 91 % 1014.6 hPa 0.2 l/m 0.1 km/h (0 Bft) O-SO 0.00 h 0 W/m 13.4 C 14.8 C 0.9 km/h (0 Bft)
26.07.2010 04:00 14.5 C 92 % 1014.4 hPa 0.0 l/m 0.2 km/h (0 Bft) O 0.00 h 0 W/m 13.3 C 14.5 C 1.0 km/h (0 Bft)
26.07.2010 05:00 14.2 C 95 % 1014.2 hPa 0.0 l/m 0.1 km/h (0 Bft) O 0.00 h 0 W/m 13.4 C 14.2 C 0.4 km/h (0 Bft)
26.07.2010 06:00 14.2 C 95 % 1014.2 hPa 0.0 l/m 0.0 km/h (0 Bft) O 0.00 h 12 W/m 13.5 C 14.2 C 0.3 km/h (0 Bft)
26.07.2010 07:00 14.4 C 95 % 1014.2 hPa 0.0 l/m 0.8 km/h (0 Bft) O 0.00 h 28 W/m 13.6 C 14.4 C 1.8 km/h (1 Bft)
26.07.2010 08:00 15.3 C 93 % 1014.3 hPa 0.0 l/m 0.1 km/h (0 Bft) O-SO 0.15 h 163 W/m 14.2 C 15.3 C 0.5 km/h (0 Bft)
26.07.2010 09:00 16.5 C 87 % 1014.3 hPa 0.0 l/m 0.6 km/h (0 Bft) N-NW 0.23 h 249 W/m 14.4 C 16.5 C 1.9 km/h (1 Bft)
26.07.2010 10:00 17.3 C 85 % 1014.3 hPa 0.0 l/m 2.4 km/h (1 Bft) W 0.00 h 246 W/m 14.8 C 17.3 C 4.2 km/h (1 Bft)
26.07.2010 11:00 17.7 C 82 % 1014.3 hPa 0.0 l/m 5.9 km/h (2 Bft) W 0.05 h 305 W/m 14.5 C 17.7 C 9.0 km/h (2 Bft)
26.07.2010 12:00 19.7 C 75 % 1014.0 hPa 0.0 l/m 5.7 km/h (1 Bft) W-NW 0.78 h 675 W/m 15.2 C 19.7 C 9.1 km/h (2 Bft)
26.07.2010 13:00 21.9 C 67 % 1013.1 hPa 0.0 l/m 6.0 km/h (2 Bft) W 0.72 h 748 W/m 15.4 C 21.9 C 9.7 km/h (2 Bft)
26.07.2010 14:00 22.9 C 59 % 1012.6 hPa 0.0 l/m 8.8 km/h (2 Bft) W 0.88 h 819 W/m 14.6 C 22.9 C 14.2 km/h (3 Bft)
26.07.2010 15:00 24.1 C 55 % 1012.2 hPa 0.0 l/m 8.0 km/h (2 Bft) W 0.92 h 766 W/m 14.5 C 24.1 C 13.2 km/h (3 Bft)
26.07.2010 16:00 23.7 C 53 % 1011.7 hPa 0.0 l/m 11.4 km/h (2 Bft) W 0.53 h 512 W/m 13.5 C 23.7 C 18.4 km/h (3 Bft)
26.07.2010 17:00 21.6 C 59 % 1011.9 hPa 0.0 l/m 12.7 km/h (3 Bft) W 0.20 h 261 W/m 13.3 C 21.6 C 19.6 km/h (3 Bft)
26.07.2010 18:00 21.1 C 62 % 1011.9 hPa 0.0 l/m 13.2 km/h (3 Bft) W 0.12 h 183 W/m 13.6 C 21.1 C 20.4 km/h (4 Bft)
26.07.2010 19:00 19.6 C 71 % 1012.5 hPa 0.8 l/m 10.6 km/h (2 Bft) W 0.00 h 25 W/m 14.1 C 19.6 C 16.8 km/h (3 Bft)
26.07.2010 20:00 16.2 C 92 % 1013.6 hPa 0.4 l/m 8.7 km/h (2 Bft) W 0.07 h 19 W/m 14.8 C 16.2 C 13.9 km/h (3 Bft)
26.07.2010 21:00 16.0 C 94 % 1013.7 hPa 0.0 l/m 5.4 km/h (1 Bft) W 0.00 h 5 W/m 14.9 C 16.0 C 9.5 km/h (2 Bft)
26.07.2010 22:00 16.1 C 93 % 1014.1 hPa 2.2 l/m 3.5 km/h (1 Bft) W 0.00 h 0 W/m 15.0 C 16.1 C 6.4 km/h (2 Bft)
26.07.2010 23:00 16.0 C 94 % 1014.0 hPa 2.8 l/m 3.0 km/h (1 Bft) S-SO 0.00 h 0 W/m 15.0 C 16.0 C 5.2 km/h (1 Bft)
27.07.2010 00:00 15.4 C 97 % 1013.9 hPa 6.4 l/m 1.7 km/h (1 Bft) S-SO 0.00 h 0 W/m 14.9 C 15.4 C 4.0 km/h (1 Bft)
27.07.2010 01:00 15.3 C 97 % 1013.6 hPa 0.0 l/m 3.0 km/h (1 Bft) W 0.00 h 0 W/m 14.8 C 15.3 C 5.9 km/h (2 Bft)
27.07.2010 02:00 14.7 C 97 % 1013.7 hPa 0.0 l/m 8.8 km/h (2 Bft) W 0.00 h 0 W/m 14.3 C 14.7 C 14.3 km/h (3 Bft)
27.07.2010 03:00 14.9 C 96 % 1013.8 hPa 0.0 l/m 1.0 km/h (0 Bft) W 0.00 h 0 W/m 14.3 C 14.9 C 2.5 km/h (1 Bft)
27.07.2010 04:00 15.0 C 95 % 1014.1 hPa 0.0 l/m 0.6 km/h (0 Bft) W-SW 0.00 h 0 W/m 14.2 C 15.0 C 2.0 km/h (1 Bft)
27.07.2010 05:00 14.7 C 96 % 1014.5 hPa 0.0 l/m 3.9 km/h (1 Bft) W-NW 0.00 h 0 W/m 14.1 C 14.7 C 7.9 km/h (2 Bft)
27.07.2010 06:00 14.8 C 96 % 1015.1 hPa 0.0 l/m 3.1 km/h (1 Bft) W 0.00 h 15 W/m 14.2 C 14.8 C 5.9 km/h (2 Bft)
27.07.2010 07:00 15.0 C 96 % 1016.0 hPa 0.0 l/m 2.8 km/h (1 Bft) W 0.00 h 49 W/m 14.4 C 15.0 C 5.4 km/h (1 Bft)
27.07.2010 08:00 16.0 C 93 % 1016.4 hPa 0.0 l/m 4.5 km/h (1 Bft) W 0.35 h 236 W/m 14.9 C 16.0 C 7.7 km/h (2 Bft)
27.07.2010 09:00 16.8 C 90 % 1016.9 hPa 0.0 l/m 2.0 km/h (1 Bft) W 0.12 h 222 W/m 15.1 C 16.8 C 4.0 km/h (1 Bft)
27.07.2010 10:00 18.0 C 85 % 1017.0 hPa 0.0 l/m 1.7 km/h (1 Bft) W 0.22 h 313 W/m 15.5 C 18.0 C 4.0 km/h (1 Bft)
27.07.2010 11:00 19.6 C 75 % 1016.9 hPa 0.0 l/m 5.4 km/h (1 Bft) W 0.65 h 620 W/m 15.0 C 19.6 C 9.4 km/h (2 Bft)
27.07.2010 12:00 21.1 C 67 % 1016.9 hPa 0.2 l/m 7.0 km/h (2 Bft) W 0.72 h 751 W/m 14.7 C 21.1 C 11.4 km/h (2 Bft)
27.07.2010 13:00 22.6 C 59 % 1016.7 hPa 0.0 l/m 8.9 km/h (2 Bft) W 0.83 h 897 W/m 14.1 C 22.6 C 14.7 km/h (3 Bft)
27.07.2010 14:00 23.5 C 54 % 1016.6 hPa 0.0 l/m 8.3 km/h (2 Bft) W 0.97 h 922 W/m 13.6 C 23.5 C 13.8 km/h (3 Bft)
27.07.2010 15:00 24.0 C 51 % 1016.3 hPa 0.0 l/m 7.1 km/h (2 Bft) W-NW 0.88 h 739 W/m 13.1 C 24.0 C 11.5 km/h (2 Bft)
27.07.2010 16:00 24.7 C 46 % 1016.3 hPa 0.0 l/m 7.1 km/h (2 Bft) W-NW 0.80 h 621 W/m 12.3 C 24.7 C 11.6 km/h (2 Bft)
27.07.2010 17:00 23.8 C 50 % 1016.6 hPa 0.0 l/m 5.8 km/h (2 Bft) W 0.58 h 448 W/m 12.7 C 23.8 C 9.5 km/h (2 Bft)
27.07.2010 18:00 24.1 C 50 % 1016.7 hPa 0.0 l/m 6.0 km/h (2 Bft) W 0.87 h 379 W/m 13.0 C 24.1 C 9.7 km/h (2 Bft)
27.07.2010 19:00 22.4 C 58 % 1017.0 hPa 0.0 l/m 3.0 km/h (1 Bft) O 0.28 h 145 W/m 13.7 C 22.4 C 5.6 km/h (1 Bft)
27.07.2010 20:00 20.4 C 67 % 1017.6 hPa 0.0 l/m 1.0 km/h (0 Bft) O-SO 0.02 h 29 W/m 14.0 C 20.4 C 2.0 km/h (1 Bft)
27.07.2010 21:00 18.3 C 76 % 1018.2 hPa 0.0 l/m 1.6 km/h (1 Bft) O-SO 0.00 h 5 W/m 14.1 C 18.3 C 2.7 km/h (1 Bft)
27.07.2010 22:00 16.8 C 84 % 1018.7 hPa 0.0 l/m 1.1 km/h (1 Bft) O-SO 0.00 h 0 W/m 14.1 C 16.8 C 2.2 km/h (1 Bft)
27.07.2010 23:00 15.7 C 89 % 1019.0 hPa 0.0 l/m 1.7 km/h (1 Bft) SO 0.00 h 0 W/m 13.9 C 15.7 C 2.8 km/h (1 Bft)
28.07.2010 00:00 14.9 C 91 % 1019.1 hPa 0.0 l/m 1.1 km/h (0 Bft) SO 0.00 h 0 W/m 13.5 C 14.9 C 2.2 km/h (1 Bft)
28.07.2010 01:00 14.4 C 93 % 1019.0 hPa 0.0 l/m 1.8 km/h (1 Bft) SO 0.00 h 0 W/m 13.2 C 14.4 C 3.0 km/h (1 Bft)
28.07.2010 02:00 14.0 C 94 % 1018.9 hPa 0.0 l/m 0.1 km/h (0 Bft) SO 0.00 h 0 W/m 13.1 C 14.0 C 0.3 km/h (0 Bft)
28.07.2010 03:00 14.0 C 95 % 1018.8 hPa 0.0 l/m 0.2 km/h (0 Bft) SO 0.00 h 0 W/m 13.1 C 14.0 C 0.8 km/h (0 Bft)
28.07.2010 04:00 13.3 C 95 % 1018.6 hPa 0.0 l/m 0.4 km/h (0 Bft) SO 0.00 h 0 W/m 12.5 C 13.3 C 0.9 km/h (0 Bft)
28.07.2010 05:00 12.9 C 96 % 1018.9 hPa 0.0 l/m 0.9 km/h (0 Bft) SO 0.00 h 0 W/m 12.3 C 12.9 C 1.9 km/h (1 Bft)
28.07.2010 06:00 13.1 C 96 % 1018.5 hPa 0.0 l/m 0.2 km/h (0 Bft) SO 0.00 h 28 W/m 12.5 C 13.1 C 0.9 km/h (0 Bft)
28.07.2010 07:00 14.0 C 95 % 1018.5 hPa 0.0 l/m 0.4 km/h (0 Bft) SO 0.00 h 81 W/m 13.2 C 14.0 C 0.9 km/h (0 Bft)
28.07.2010 08:00 15.0 C 92 % 1018.4 hPa 0.0 l/m 0.8 km/h (0 Bft) SO 0.03 h 123 W/m 13.8 C 15.0 C 2.0 km/h (1 Bft)
28.07.2010 09:00 16.2 C 89 % 1018.3 hPa 0.0 l/m 0.2 km/h (0 Bft) SO 0.00 h 152 W/m 14.3 C 16.2 C 1.0 km/h (0 Bft)
28.07.2010 10:00 16.8 C 88 % 1018.3 hPa 0.0 l/m 0.1 km/h (0 Bft) SO 0.00 h 163 W/m 14.8 C 16.8 C 0.9 km/h (0 Bft)
28.07.2010 11:00 16.6 C 93 % 1018.6 hPa 1.6 l/m 0.0 km/h (0 Bft) SO 0.00 h 134 W/m 15.5 C 16.6 C 0.5 km/h (0 Bft)
28.07.2010 12:00 16.5 C 96 % 1019.0 hPa 1.6 l/m 0.9 km/h (0 Bft) W-SW 0.00 h 146 W/m 15.9 C 16.5 C 2.6 km/h (1 Bft)
28.07.2010 13:00 16.5 C 96 % 1018.7 hPa 1.0 l/m 0.9 km/h (0 Bft) W-SW 0.00 h 167 W/m 15.8 C 16.5 C 2.9 km/h (1 Bft)
28.07.2010 14:00 17.3 C 95 % 1018.1 hPa 0.0 l/m 1.3 km/h (1 Bft) S-SO 0.00 h 278 W/m 16.6 C 17.3 C 3.6 km/h (1 Bft)
28.07.2010 15:00 17.5 C 95 % 1017.8 hPa 0.8 l/m 0.8 km/h (0 Bft) W-SW 0.00 h 152 W/m 16.7 C 17.5 C 3.0 km/h (1 Bft)
28.07.2010 16:00 18.6 C 94 % 1017.0 hPa 0.0 l/m 3.6 km/h (1 Bft) S-SO 0.43 h 377 W/m 17.5 C 18.6 C 8.2 km/h (2 Bft)
28.07.2010 17:00 19.0 C 90 % 1016.3 hPa 0.0 l/m 3.4 km/h (1 Bft) S-SO 0.25 h 245 W/m 17.3 C 19.0 C 7.3 km/h (2 Bft)
28.07.2010 18:00 19.1 C 90 % 1015.7 hPa 0.0 l/m 2.2 km/h (1 Bft) SW 0.12 h 152 W/m 17.5 C 19.1 C 5.1 km/h (1 Bft)
28.07.2010 19:00 19.2 C 89 % 1015.3 hPa 0.0 l/m 3.4 km/h (1 Bft) S-SO 0.78 h 159 W/m 17.4 C 19.2 C 7.2 km/h (2 Bft)
28.07.2010 20:00 18.2 C 91 % 1015.3 hPa 0.0 l/m 2.8 km/h (1 Bft) S-SO 0.07 h 24 W/m 16.8 C 18.2 C 6.0 km/h (2 Bft)
28.07.2010 21:00 17.5 C 94 % 1015.3 hPa 0.0 l/m 2.2 km/h (1 Bft) S-SO 0.00 h 5 W/m 16.4 C 17.5 C 4.3 km/h (1 Bft)
28.07.2010 22:00 17.1 C 95 % 1015.2 hPa 0.0 l/m 0.9 km/h (0 Bft) S-SO 0.00 h 0 W/m 16.3 C 17.1 C 2.2 km/h (1 Bft)
28.07.2010 23:00 16.5 C 96 % 1015.1 hPa 0.0 l/m 3.1 km/h (1 Bft) O-SO 0.00 h 0 W/m 15.9 C 16.5 C 4.7 km/h (1 Bft)
29.07.2010 00:00 16.1 C 97 % 1014.7 hPa 0.2 l/m 1.4 km/h (1 Bft) O-SO 0.00 h 0 W/m 15.6 C 16.1 C 2.6 km/h (1 Bft)
29.07.2010 01:00 16.3 C 98 % 1014.0 hPa 0.0 l/m 2.8 km/h (1 Bft) O-SO 0.00 h 0 W/m 16.0 C 16.3 C 4.2 km/h (1 Bft)
29.07.2010 02:00 16.3 C 99 % 1013.3 hPa 0.0 l/m 0.5 km/h (0 Bft) O-SO 0.00 h 0 W/m 16.1 C 16.3 C 1.4 km/h (1 Bft)
29.07.2010 03:00 16.2 C 99 % 1012.4 hPa 0.0 l/m 0.5 km/h (0 Bft) O 0.00 h 0 W/m 16.0 C 16.2 C 1.8 km/h (1 Bft)
29.07.2010 04:00 16.3 C 99 % 1011.4 hPa 2.0 l/m 0.3 km/h (0 Bft) O 0.00 h 0 W/m 16.1 C 16.3 C 0.9 km/h (0 Bft)
29.07.2010 05:00 16.1 C 99 % 1010.7 hPa 1.2 l/m 0.2 km/h (0 Bft) W-SW 0.00 h 0 W/m 16.0 C 16.1 C 1.0 km/h (0 Bft)
29.07.2010 06:00 15.9 C 99 % 1010.9 hPa 0.4 l/m 0.3 km/h (0 Bft) W-NW 0.00 h 10 W/m 15.7 C 15.9 C 0.9 km/h (0 Bft)
29.07.2010 07:00 15.8 C 97 % 1011.1 hPa 0.0 l/m 2.2 km/h (1 Bft) S-SO 0.10 h 47 W/m 15.4 C 15.8 C 4.0 km/h (1 Bft)
29.07.2010 08:00 16.0 C 97 % 1011.2 hPa 0.0 l/m 0.7 km/h (0 Bft) S-SO 0.00 h 66 W/m 15.6 C 16.0 C 1.4 km/h (1 Bft)
29.07.2010 09:00 16.6 C 98 % 1010.9 hPa 0.0 l/m 1.0 km/h (0 Bft) S-SW 0.00 h 112 W/m 16.2 C 16.6 C 2.8 km/h (1 Bft)
29.07.2010 10:00 16.5 C 97 % 1010.9 hPa 0.6 l/m 1.4 km/h (1 Bft) S-SO 0.00 h 75 W/m 16.0 C 16.5 C 3.7 km/h (1 Bft)
29.07.2010 11:00 16.2 C 96 % 1011.2 hPa 0.0 l/m 2.0 km/h (1 Bft) S-SO 0.00 h 82 W/m 15.6 C 16.2 C 5.0 km/h (1 Bft)
29.07.2010 12:00 16.1 C 94 % 1011.1 hPa 5.0 l/m 6.9 km/h (2 Bft) S-SO 0.30 h 328 W/m 15.1 C 16.1 C 12.6 km/h (3 Bft)
29.07.2010 13:00 14.1 C 97 % 1012.4 hPa 1.8 l/m 0.8 km/h (0 Bft) SO 0.00 h 111 W/m 13.6 C 14.1 C 2.1 km/h (1 Bft)
29.07.2010 14:00 16.2 C 94 % 1011.9 hPa 0.0 l/m 0.9 km/h (0 Bft) N 0.47 h 553 W/m 15.2 C 16.2 C 2.7 km/h (1 Bft)
29.07.2010 15:00 18.0 C 93 % 1011.4 hPa 0.0 l/m 1.9 km/h (1 Bft) S-SO 0.32 h 521 W/m 16.8 C 18.0 C 4.5 km/h (1 Bft)
29.07.2010 16:00 17.1 C 86 % 1011.1 hPa 0.2 l/m 3.7 km/h (1 Bft) N-NW 0.00 h 141 W/m 14.8 C 17.1 C 6.8 km/h (2 Bft)
29.07.2010 17:00 16.6 C 91 % 1011.6 hPa 0.4 l/m 0.9 km/h (0 Bft) N-NW 0.02 h 152 W/m 15.1 C 16.6 C 1.9 km/h (1 Bft)
29.07.2010 18:00 17.0 C 90 % 1011.8 hPa 0.0 l/m 2.2 km/h (1 Bft) W-NW 0.17 h 180 W/m 15.3 C 17.0 C 4.6 km/h (1 Bft)
29.07.2010 19:00 17.2 C 88 % 1012.5 hPa 0.0 l/m 3.4 km/h (1 Bft) W 0.23 h 114 W/m 15.2 C 17.2 C 6.1 km/h (2 Bft)
29.07.2010 20:00 15.7 C 91 % 1013.1 hPa 0.0 l/m 1.8 km/h (1 Bft) W 0.00 h 12 W/m 14.3 C 15.7 C 4.1 km/h (1 Bft)
29.07.2010 21:00 15.2 C 91 % 1013.4 hPa 0.0 l/m 1.7 km/h (1 Bft) SO 0.00 h 0 W/m 13.7 C 15.2 C 3.5 km/h (1 Bft)
29.07.2010 22:00 14.8 C 93 % 1013.9 hPa 0.0 l/m 1.2 km/h (1 Bft) W-NW 0.00 h 0 W/m 13.6 C 14.8 C 2.4 km/h (1 Bft)
29.07.2010 23:00 14.8 C 92 % 1013.9 hPa 0.0 l/m 0.5 km/h (0 Bft) SO 0.00 h 0 W/m 13.5 C 14.8 C 1.7 km/h (1 Bft)
30.07.2010 00:00 14.5 C 93 % 1014.2 hPa 0.0 l/m 0.2 km/h (0 Bft) SO 0.00 h 0 W/m 13.3 C 14.5 C 0.4 km/h (0 Bft)
30.07.2010 01:00 14.5 C 92 % 1014.1 hPa 0.4 l/m 0.4 km/h (0 Bft) SO 0.00 h 0 W/m 13.1 C 14.5 C 1.0 km/h (0 Bft)
30.07.2010 02:00 14.1 C 94 % 1014.0 hPa 0.0 l/m 0.6 km/h (0 Bft) S-SO 0.00 h 0 W/m 13.2 C 14.1 C 2.1 km/h (1 Bft)
30.07.2010 03:00 13.8 C 96 % 1013.4 hPa 0.2 l/m 0.9 km/h (0 Bft) S-SO 0.00 h 0 W/m 13.2 C 13.8 C 1.9 km/h (1 Bft)
30.07.2010 04:00 13.6 C 97 % 1013.4 hPa 0.0 l/m 0.5 km/h (0 Bft) SO 0.00 h 0 W/m 13.1 C 13.6 C 1.8 km/h (1 Bft)
30.07.2010 05:00 13.6 C 96 % 1013.5 hPa 0.0 l/m 1.0 km/h (0 Bft) SO 0.00 h 0 W/m 13.0 C 13.6 C 2.1 km/h (1 Bft)
30.07.2010 06:00 13.6 C 96 % 1013.6 hPa 2.0 l/m 1.3 km/h (1 Bft) O-SO 0.00 h 7 W/m 13.0 C 13.6 C 2.5 km/h (1 Bft)
30.07.2010 07:00 13.8 C 97 % 1014.1 hPa 0.0 l/m 0.6 km/h (0 Bft) O-SO 0.20 h 85 W/m 13.4 C 13.8 C 1.6 km/h (1 Bft)
30.07.2010 08:00 15.0 C 96 % 1014.5 hPa 0.0 l/m 0.1 km/h (0 Bft) O-SO 0.40 h 225 W/m 14.3 C 15.0 C 0.5 km/h (0 Bft)
30.07.2010 09:00 15.6 C 91 % 1015.0 hPa 0.0 l/m 0.2 km/h (0 Bft) O-SO 0.30 h 296 W/m 14.2 C 15.6 C 1.0 km/h (0 Bft)
30.07.2010 10:00 17.0 C 88 % 1015.2 hPa 0.0 l/m 0.9 km/h (0 Bft) SO 0.42 h 416 W/m 15.0 C 17.0 C 3.1 km/h (1 Bft)
30.07.2010 11:00 15.8 C 91 % 1015.4 hPa 10.0 l/m 3.9 km/h (1 Bft) W 0.00 h 143 W/m 14.3 C 15.8 C 6.6 km/h (2 Bft)
30.07.2010 12:00 14.6 C 95 % 1016.1 hPa 2.8 l/m 1.4 km/h (1 Bft) NO 0.00 h 189 W/m 13.9 C 14.6 C 3.0 km/h (1 Bft)
30.07.2010 13:00 16.2 C 96 % 1015.9 hPa 0.0 l/m 1.4 km/h (1 Bft) NW 0.57 h 546 W/m 15.5 C 16.2 C 3.3 km/h (1 Bft)
30.07.2010 14:00 17.4 C 91 % 1015.7 hPa 0.0 l/m 2.5 km/h (1 Bft) N-NW 0.77 h 530 W/m 15.8 C 17.4 C 4.8 km/h (1 Bft)
30.07.2010 15:00 18.7 C 79 % 1015.4 hPa 0.0 l/m 2.6 km/h (1 Bft) N-NW 0.67 h 638 W/m 14.8 C 18.7 C 4.5 km/h (1 Bft)
30.07.2010 16:00 19.8 C 67 % 1015.3 hPa 0.0 l/m 3.7 km/h (1 Bft) N-NW 0.57 h 520 W/m 13.4 C 19.8 C 6.3 km/h (2 Bft)
30.07.2010 17:00 20.4 C 59 % 1015.3 hPa 0.0 l/m 2.5 km/h (1 Bft) W-NW 0.83 h 442 W/m 12.2 C 20.4 C 5.0 km/h (1 Bft)
30.07.2010 18:00 21.1 C 63 % 1015.6 hPa 0.0 l/m 3.7 km/h (1 Bft) W 0.93 h 337 W/m 13.7 C 21.1 C 6.2 km/h (2 Bft)
30.07.2010 19:00 20.3 C 62 % 1015.7 hPa 0.0 l/m 2.3 km/h (1 Bft) NO 1.00 h 178 W/m 12.8 C 20.3 C 5.1 km/h (1 Bft)
30.07.2010 20:00 18.3 C 67 % 1015.8 hPa 0.0 l/m 1.6 km/h (1 Bft) O-SO 0.30 h 42 W/m 12.0 C 18.3 C 4.1 km/h (1 Bft)
30.07.2010 21:00 15.6 C 79 % 1016.4 hPa 0.0 l/m 1.7 km/h (1 Bft) O-SO 0.00 h 5 W/m 11.9 C 15.6 C 3.2 km/h (1 Bft)
30.07.2010 22:00 14.2 C 86 % 1016.7 hPa 0.0 l/m 0.6 km/h (0 Bft) O-SO 0.00 h 0 W/m 11.9 C 14.2 C 1.6 km/h (1 Bft)
30.07.2010 23:00 13.1 C 91 % 1017.2 hPa 0.0 l/m 0.6 km/h (0 Bft) O-SO 0.00 h 0 W/m 11.7 C 13.1 C 1.5 km/h (1 Bft)
31.07.2010 00:00 12.4 C 94 % 1017.4 hPa 0.0 l/m 0.0 km/h (0 Bft) O-SO 0.00 h 0 W/m 11.6 C 12.4 C 0.3 km/h (0 Bft)
31.07.2010 01:00 12.1 C 96 % 1017.2 hPa 0.0 l/m 0.0 km/h (0 Bft) N 0.00 h 0 W/m 11.4 C 12.1 C 0.1 km/h (0 Bft)
31.07.2010 02:00 11.5 C 97 % 1017.1 hPa 0.0 l/m 0.1 km/h (0 Bft) O-SO 0.00 h 0 W/m 10.9 C 11.5 C 0.5 km/h (0 Bft)
31.07.2010 03:00 11.0 C 97 % 1017.1 hPa 0.0 l/m 0.0 km/h (0 Bft) O-SO 0.00 h 0 W/m 10.5 C 11.0 C 0.2 km/h (0 Bft)
31.07.2010 04:00 10.8 C 97 % 1016.8 hPa 0.0 l/m 0.2 km/h (0 Bft) O-SO 0.00 h 0 W/m 10.4 C 10.8 C 0.5 km/h (0 Bft)
31.07.2010 05:00 10.4 C 98 % 1016.9 hPa 0.0 l/m 0.6 km/h (0 Bft) O-SO 0.00 h 0 W/m 10.1 C 10.4 C 1.4 km/h (1 Bft)
31.07.2010 06:00 10.5 C 98 % 1017.0 hPa 0.0 l/m 0.0 km/h (0 Bft) O-SO 0.00 h 20 W/m 10.2 C 10.5 C 0.3 km/h (0 Bft)
31.07.2010 07:00 11.0 C 99 % 1017.4 hPa 0.0 l/m 0.0 km/h (0 Bft) O-SO 0.05 h 88 W/m 10.8 C 11.0 C 0.3 km/h (0 Bft)
31.07.2010 08:00 12.8 C 96 % 1017.7 hPa 0.0 l/m 0.4 km/h (0 Bft) O-SO 0.87 h 277 W/m 12.3 C 12.8 C 1.4 km/h (1 Bft)
31.07.2010 09:00 15.9 C 87 % 1017.5 hPa 0.0 l/m 1.2 km/h (1 Bft) N 1.00 h 468 W/m 13.9 C 15.9 C 2.7 km/h (1 Bft)
31.07.2010 10:00 18.3 C 80 % 1017.2 hPa 0.0 l/m 3.0 km/h (1 Bft) W-NW 1.00 h 622 W/m 14.8 C 18.3 C 5.5 km/h (1 Bft)
31.07.2010 11:00 20.4 C 68 % 1017.0 hPa 0.0 l/m 2.5 km/h (1 Bft) O-SO 1.00 h 744 W/m 14.2 C 20.4 C 5.5 km/h (1 Bft)
31.07.2010 12:00 21.7 C 59 % 1016.7 hPa 0.0 l/m 5.5 km/h (1 Bft) O-SO 1.00 h 822 W/m 13.2 C 21.7 C 8.8 km/h (2 Bft)
31.07.2010 13:00 22.8 C 50 % 1016.2 hPa 0.0 l/m 3.7 km/h (1 Bft) O-SO 1.00 h 853 W/m 11.9 C 22.8 C 6.0 km/h (2 Bft)
31.07.2010 14:00 23.7 C 46 % 1015.6 hPa 0.0 l/m 2.4 km/h (1 Bft) O-SO 1.00 h 830 W/m 11.4 C 23.7 C 4.8 km/h (1 Bft)
31.07.2010 15:00 24.8 C 45 % 1015.2 hPa 0.0 l/m 1.7 km/h (1 Bft) N-NO 1.00 h 761 W/m 11.9 C 24.8 C 3.8 km/h (1 Bft)
31.07.2010 16:00 25.7 C 41 % 1015.0 hPa 0.0 l/m 3.4 km/h (1 Bft) W 1.00 h 651 W/m 11.3 C 25.7 C 5.7 km/h (1 Bft)
31.07.2010 17:00 25.7 C 38 % 1014.7 hPa 0.0 l/m 1.4 km/h (1 Bft) W 1.00 h 501 W/m 10.1 C 25.7 C 3.1 km/h (1 Bft)
31.07.2010 18:00 25.9 C 42 % 1014.6 hPa 0.0 l/m 2.1 km/h (1 Bft) W-NW 1.00 h 335 W/m 12.0 C 25.9 C 3.7 km/h (1 Bft)
31.07.2010 19:00 25.0 C 45 % 1014.6 hPa 0.0 l/m 1.0 km/h (0 Bft) W-SW 1.00 h 170 W/m 12.2 C 25.0 C 2.8 km/h (1 Bft)
31.07.2010 20:00 22.6 C 60 % 1014.7 hPa 0.0 l/m 1.5 km/h (1 Bft) O-SO 0.32 h 40 W/m 14.4 C 22.6 C 2.5 km/h (1 Bft)
31.07.2010 21:00 18.9 C 74 % 1015.3 hPa 0.0 l/m 4.2 km/h (1 Bft) SO 0.00 h 0 W/m 14.2 C 18.9 C 5.7 km/h (1 Bft)
31.07.2010 22:00 17.3 C 78 % 1015.7 hPa 0.0 l/m 2.7 km/h (1 Bft) SO 0.00 h 0 W/m 13.5 C 17.3 C 4.3 km/h (1 Bft)
31.07.2010 23:00 15.9 C 85 % 1015.9 hPa 0.0 l/m 1.3 km/h (1 Bft) O-SO 0.00 h 0 W/m 13.3 C 15.9 C 2.2 km/h (1 Bft)
01.08.2010 00:00 14.9 C 89 % 1015.9 hPa 0.0 l/m 1.0 km/h (0 Bft) O-SO 0.00 h 0 W/m 13.1 C 14.9 C 2.2 km/h (1 Bft)
01.08.2010 01:00 14.5 C 90 % 1016.0 hPa 0.0 l/m 0.5 km/h (0 Bft) O-SO 0.00 h 0 W/m 12.8 C 14.5 C 1.3 km/h (1 Bft)
01.08.2010 02:00 13.9 C 92 % 1015.7 hPa 0.0 l/m 0.4 km/h (0 Bft) O-SO 0.00 h 0 W/m 12.6 C 13.9 C 0.9 km/h (0 Bft)
01.08.2010 03:00 13.7 C 92 % 1015.4 hPa 0.0 l/m 0.9 km/h (0 Bft) O-SO 0.00 h 0 W/m 12.4 C 13.7 C 1.9 km/h (1 Bft)
01.08.2010 04:00 13.1 C 94 % 1015.3 hPa 0.0 l/m 0.2 km/h (0 Bft) O-SO 0.00 h 0 W/m 12.1 C 13.1 C 0.8 km/h (0 Bft)
01.08.2010 05:00 12.7 C 94 % 1015.5 hPa 0.0 l/m 0.5 km/h (0 Bft) O-SO 0.00 h 0 W/m 11.8 C 12.7 C 1.3 km/h (1 Bft)
01.08.2010 06:00 12.6 C 95 % 1015.7 hPa 0.0 l/m 1.0 km/h (0 Bft) O-SO 0.00 h 27 W/m 11.8 C 12.6 C 1.9 km/h (1 Bft)
01.08.2010 07:00 13.9 C 93 % 1016.0 hPa 0.0 l/m 0.3 km/h (0 Bft) O-SO 0.02 h 54 W/m 12.8 C 13.9 C 1.0 km/h (0 Bft)
01.08.2010 08:00 15.8 C 89 % 1016.2 hPa 0.0 l/m 0.3 km/h (0 Bft) W-SW 0.57 h 222 W/m 13.9 C 15.8 C 0.9 km/h (0 Bft)
01.08.2010 09:00 18.6 C 81 % 1016.2 hPa 0.0 l/m 0.5 km/h (0 Bft) W-SW 1.00 h 457 W/m 15.3 C 18.6 C 1.6 km/h (1 Bft)
01.08.2010 10:00 21.4 C 73 % 1015.8 hPa 0.0 l/m 0.8 km/h (0 Bft) W-SW 1.00 h 601 W/m 16.2 C 21.4 C 2.8 km/h (1 Bft)
01.08.2010 11:00 24.5 C 64 % 1015.3 hPa 0.0 l/m 2.8 km/h (1 Bft) S-SO 1.00 h 718 W/m 17.1 C 24.5 C 5.5 km/h (1 Bft)
01.08.2010 12:00 26.3 C 56 % 1014.7 hPa 0.0 l/m 3.2 km/h (1 Bft) S-SO 1.00 h 790 W/m 16.7 C 26.3 C 6.3 km/h (2 Bft)
01.08.2010 13:00 27.6 C 52 % 1014.3 hPa 0.0 l/m 3.0 km/h (1 Bft) S-SO 1.00 h 872 W/m 16.6 C 27.6 C 6.0 km/h (2 Bft)
01.08.2010 14:00 27.5 C 53 % 1013.9 hPa 0.0 l/m 1.4 km/h (1 Bft) S-SO 0.58 h 539 W/m 17.0 C 27.5 C 3.6 km/h (1 Bft)
01.08.2010 15:00 29.3 C 50 % 1013.1 hPa 0.0 l/m 2.1 km/h (1 Bft) S-SO 0.95 h 724 W/m 17.6 C 29.3 C 4.3 km/h (1 Bft)
01.08.2010 16:00 29.9 C 46 % 1012.5 hPa 0.0 l/m 3.2 km/h (1 Bft) S-SO 1.00 h 618 W/m 17.0 C 29.9 C 6.5 km/h (2 Bft)
01.08.2010 17:00 29.7 C 46 % 1012.0 hPa 0.0 l/m 2.8 km/h (1 Bft) SW 0.72 h 383 W/m 16.7 C 29.7 C 6.1 km/h (2 Bft)
01.08.2010 18:00 28.5 C 52 % 1012.0 hPa 0.0 l/m 3.7 km/h (1 Bft) W-NW 0.32 h 213 W/m 17.5 C 28.5 C 6.1 km/h (2 Bft)
01.08.2010 19:00 26.9 C 55 % 1012.2 hPa 0.0 l/m 9.6 km/h (2 Bft) W 0.00 h 65 W/m 17.0 C 26.9 C 14.2 km/h (3 Bft)
01.08.2010 20:00 24.9 C 64 % 1012.9 hPa 0.4 l/m 11.5 km/h (2 Bft) W 0.00 h 12 W/m 17.5 C 24.9 C 18.1 km/h (3 Bft)
01.08.2010 21:00 19.7 C 85 % 1015.0 hPa 0.4 l/m 9.8 km/h (2 Bft) W 0.00 h 0 W/m 17.1 C 19.7 C 15.3 km/h (3 Bft)
01.08.2010 22:00 19.5 C 86 % 1015.7 hPa 0.2 l/m 2.8 km/h (1 Bft) S-SO 0.00 h 0 W/m 17.1 C 19.5 C 5.5 km/h (1 Bft)
01.08.2010 23:00 18.9 C 93 % 1015.9 hPa 0.8 l/m 1.1 km/h (0 Bft) O-SO 0.00 h 0 W/m 17.8 C 18.9 C 2.0 km/h (1 Bft)
Min-Datum _ 31.07.10 31.07.10 29.07.10 - 26.07.10 - - - 31.07.10 31.07.10 26.07.10
_ Min-Zeit 05:58 17:36 05:45 - 00:04 - - - 17:36 05:53 01:02
Minimum _ 10.0 C 31 % 1010.3 hPa - 0.0 km/h (0 Bft) - - - 6.8 C 10.1 C 0.0 km/h (0 Bft)
Max-Datum _ 01.08.10 27.07.10 28.07.10 30.07.10 01.08.10 - 26.07.10 30.07.10 01.08.10 01.08.10 01.08.10
_ Max-Zeit 16:37 07:30 00:30 11:51 20:58 - 08:30 13:41 15:12 16:37 20:58
Maximum _ 30.4 C 99 % 1019.2 hPa 10.0 l/m 30.4 km/h
W (5 Bft)
- 0.02 h 1241 W/m 20.0 C 30.4 C 48.7 km/h
W (6 Bft)
Durchschnitt _ 17.6 C 83 % 1015.1 hPa #47.2 l/m 2.5 km/h (1 Bft) W #43:33 h 315 W/m 14.2 C 17.6 C 4.6 km/h (1 Bft)
© Kaiko 2010